createdAt,value
2019-03-08T00:01:45.747Z,12.90
2019-03-08T00:04:16.240Z,8.37
2019-03-08T00:06:46.719Z,8.23
2019-03-08T00:09:17.187Z,11.27
2019-03-08T00:11:47.597Z,7.23
2019-03-08T00:14:18.046Z,4.87
2019-03-08T00:16:48.838Z,14.90
2019-03-08T00:19:19.298Z,7.60
2019-03-08T00:21:49.783Z,7.03
2019-03-08T00:24:21.006Z,5.37
2019-03-08T00:26:51.494Z,5.60
2019-03-08T00:29:23.709Z,8.97
2019-03-08T00:31:54.106Z,6.37
2019-03-08T00:34:24.600Z,6.97
2019-03-08T00:36:55.204Z,8.70
2019-03-08T00:39:25.814Z,9.87
2019-03-08T00:41:56.618Z,8.23
2019-03-08T00:44:27.098Z,9.23
2019-03-08T00:46:57.558Z,8.90
2019-03-08T00:49:28.047Z,7.90
2019-03-08T00:51:58.510Z,10.07
2019-03-08T00:54:29.126Z,9.37
2019-03-08T00:56:59.602Z,10.30
2019-03-08T00:59:30.062Z,8.47
2019-03-08T01:02:00.518Z,10.40
2019-03-08T01:04:30.998Z,13.10
2019-03-08T01:07:01.716Z,9.93
2019-03-08T01:09:32.208Z,12.03
2019-03-08T01:12:02.670Z,12.93
2019-03-08T01:14:33.178Z,11.50
2019-03-08T01:17:04.002Z,13.30
2019-03-08T01:19:34.762Z,9.93
2019-03-08T01:22:05.367Z,12.43
2019-03-08T01:24:35.924Z,13.23
2019-03-08T01:27:06.479Z,15.03
2019-03-08T01:29:36.943Z,11.73
2019-03-08T01:32:08.923Z,10.87
2019-03-08T01:34:40.209Z,11.97
2019-03-08T01:37:10.919Z,10.83
2019-03-08T01:39:43.867Z,12.27
2019-03-08T01:42:14.422Z,17.73
2019-03-08T01:44:45.134Z,15.07
2019-03-08T01:47:15.535Z,13.00
2019-03-08T01:49:46.746Z,11.50
2019-03-08T01:52:17.350Z,12.20
2019-03-08T01:54:47.950Z,13.57
2019-03-08T01:57:18.910Z,15.27
2019-03-08T01:59:49.727Z,12.37
2019-03-08T02:02:20.233Z,10.67
2019-03-08T02:04:52.755Z,11.83
2019-03-08T02:07:28.362Z,13.53
2019-03-08T02:09:59.131Z,12.37
2019-03-08T02:12:29.719Z,10.10
2019-03-08T02:15:00.214Z,9.77
2019-03-08T02:17:30.594Z,11.43
2019-03-08T02:20:01.794Z,11.40
2019-03-08T02:22:32.653Z,10.40
2019-03-08T02:25:03.310Z,10.30
2019-03-08T02:27:33.834Z,10.13
2019-03-08T02:30:06.486Z,10.53
2019-03-08T02:32:37.015Z,10.40
2019-03-08T02:35:07.614Z,11.40
2019-03-08T02:37:38.116Z,12.13
2019-03-08T02:40:34.151Z,10.00
2019-03-08T02:43:09.278Z,11.33
2019-03-08T02:45:39.980Z,13.17
2019-03-08T02:48:10.538Z,10.47
2019-03-08T02:50:41.130Z,11.40
2019-03-08T02:53:11.694Z,9.67
2019-03-08T02:55:42.176Z,12.23
2019-03-08T02:58:12.747Z,10.97
2019-03-08T03:00:45.520Z,10.97
2019-03-08T03:03:16.205Z,10.43
2019-03-08T03:05:46.662Z,11.53
2019-03-08T03:08:19.028Z,10.93
2019-03-08T03:10:49.893Z,16.20
2019-03-08T03:13:20.314Z,13.10
2019-03-08T03:15:51.102Z,9.97
2019-03-08T03:18:21.946Z,9.93
2019-03-08T03:20:53.910Z,11.93
2019-03-08T03:23:24.386Z,11.40
2019-03-08T03:25:54.858Z,9.73
2019-03-08T03:28:25.798Z,11.10
2019-03-08T03:30:56.915Z,9.83
2019-03-08T03:33:27.380Z,11.37
2019-03-08T03:35:58.754Z,11.20
2019-03-08T03:38:30.283Z,12.13
2019-03-08T03:41:00.882Z,8.77
2019-03-08T03:43:31.603Z,8.67
2019-03-08T03:46:02.104Z,11.43
2019-03-08T03:48:32.703Z,10.47
2019-03-08T03:51:03.170Z,13.53
2019-03-08T03:53:33.703Z,12.00
2019-03-08T03:56:04.307Z,10.90
2019-03-08T03:58:35.120Z,10.70
2019-03-08T04:01:30.318Z,9.57
2019-03-08T04:04:02.730Z,8.33
2019-03-08T04:06:33.127Z,8.77
2019-03-08T04:09:05.323Z,9.13
2019-03-08T04:11:37.062Z,9.40
2019-03-08T04:14:07.557Z,8.37
2019-03-08T04:16:38.367Z,10.23
2019-03-08T04:19:08.877Z,10.47
2019-03-08T04:21:39.370Z,10.60
2019-03-08T04:24:09.926Z,9.23
2019-03-08T04:26:40.664Z,8.93
2019-03-08T04:29:11.126Z,10.93
2019-03-08T04:31:41.955Z,12.50
2019-03-08T04:34:12.430Z,9.63
2019-03-08T04:36:42.946Z,8.63
2019-03-08T04:39:13.370Z,9.50
2019-03-08T04:41:43.859Z,11.43
2019-03-08T04:44:14.394Z,9.70
2019-03-08T04:46:44.862Z,9.27
2019-03-08T04:49:15.655Z,8.77
2019-03-08T04:51:46.155Z,8.07
2019-03-08T04:54:16.734Z,9.63
2019-03-08T04:56:47.214Z,10.30
2019-03-08T04:59:17.711Z,7.80
2019-03-08T05:01:48.170Z,8.63
2019-03-08T05:04:18.635Z,10.30
2019-03-08T05:06:49.126Z,10.77
2019-03-08T05:09:19.602Z,9.63
2019-03-08T05:11:50.078Z,7.97
2019-03-08T05:14:20.550Z,13.00
2019-03-08T05:16:51.044Z,10.40
2019-03-08T05:19:22.056Z,8.67
2019-03-08T05:21:52.768Z,10.40
2019-03-08T05:24:23.261Z,9.30
2019-03-08T05:26:53.716Z,11.63
2019-03-08T05:29:24.407Z,11.27
2019-03-08T05:31:54.830Z,10.97
2019-03-08T05:34:25.567Z,11.53
2019-03-08T05:36:56.038Z,11.23
2019-03-08T05:39:26.542Z,10.07
2019-03-08T05:41:57.035Z,12.67
2019-03-08T05:44:27.534Z,9.63
2019-03-08T05:46:58.477Z,12.40
2019-03-08T05:49:28.958Z,9.47
2019-03-08T05:51:59.452Z,9.57
2019-03-08T05:54:29.950Z,12.40
2019-03-08T05:57:01.304Z,10.93
2019-03-08T05:59:31.765Z,12.33
2019-03-08T06:02:02.255Z,10.40
2019-03-08T06:04:32.743Z,10.20
2019-03-08T06:07:03.331Z,11.03
2019-03-08T06:09:33.877Z,12.40
2019-03-08T06:12:04.326Z,9.80
2019-03-08T06:14:35.790Z,9.27
2019-03-08T06:17:06.258Z,13.20
2019-03-08T06:19:36.736Z,9.50
2019-03-08T06:22:07.219Z,13.33
2019-03-08T06:24:37.694Z,12.63
2019-03-08T06:27:08.426Z,12.00
2019-03-08T06:29:39.317Z,10.30
2019-03-08T06:32:09.782Z,11.23
2019-03-08T06:34:40.264Z,11.20
2019-03-08T06:37:11.034Z,12.57
2019-03-08T06:39:42.147Z,9.37
2019-03-08T06:42:13.814Z,10.77
2019-03-08T06:44:44.319Z,10.87
2019-03-08T06:47:14.801Z,9.07
2019-03-08T06:49:45.286Z,11.33
2019-03-08T06:52:15.749Z,13.07
2019-03-08T06:54:46.179Z,10.53
2019-03-08T06:57:17.342Z,10.10
2019-03-08T06:59:54.679Z,8.70
2019-03-08T07:02:25.563Z,7.93
2019-03-08T07:04:56.463Z,10.97
2019-03-08T07:07:27.548Z,10.23
2019-03-08T07:09:58.302Z,10.47
2019-03-08T07:12:28.941Z,9.93
2019-03-08T07:14:59.684Z,11.53
2019-03-08T07:17:30.964Z,10.03
2019-03-08T07:20:26.543Z,9.87
2019-03-08T07:23:03.628Z,9.70
2019-03-08T07:25:58.857Z,11.17
2019-03-08T07:28:48.318Z,9.03
2019-03-08T07:31:27.711Z,8.50
2019-03-08T07:34:11.224Z,9.53
2019-03-08T07:37:06.469Z,10.27
2019-03-08T07:39:59.459Z,8.00
2019-03-08T07:43:07.085Z,10.53
2019-03-08T07:46:03.583Z,8.30
2019-03-08T07:48:43.663Z,6.73
2019-03-08T07:51:28.683Z,7.17
2019-03-08T07:54:18.231Z,7.53
2019-03-08T07:57:02.085Z,6.93
2019-03-08T07:59:54.199Z,9.10
2019-03-08T08:02:39.066Z,7.53
2019-03-08T08:05:26.285Z,9.83
2019-03-08T08:08:05.490Z,6.70
2019-03-08T08:11:13.103Z,5.03
2019-03-08T08:14:05.755Z,5.73
2019-03-08T08:16:55.166Z,5.97
2019-03-08T08:19:43.270Z,6.20
2019-03-08T08:22:32.706Z,7.30
2019-03-08T08:25:22.262Z,5.33
2019-03-08T08:28:15.018Z,4.40
2019-03-08T08:30:59.898Z,6.23
2019-03-08T08:33:52.086Z,3.90
2019-03-08T08:36:42.046Z,5.30
2019-03-08T08:39:23.155Z,4.00
2019-03-08T08:42:09.018Z,3.97
2019-03-08T08:45:16.870Z,3.50
2019-03-08T08:48:00.706Z,6.17
2019-03-08T08:50:44.246Z,4.07
2019-03-08T08:53:27.168Z,3.27
2019-03-08T08:56:07.986Z,2.60
2019-03-08T08:58:53.636Z,3.57
2019-03-08T09:01:41.732Z,2.50
2019-03-08T09:04:31.167Z,3.20
2019-03-08T09:07:19.274Z,1.70
2019-03-08T09:10:08.762Z,2.83
2019-03-08T09:13:01.194Z,1.77
2019-03-08T09:15:50.906Z,1.37
2019-03-08T09:18:38.029Z,1.93
2019-03-08T09:21:30.704Z,2.13
2019-03-08T09:24:15.292Z,0.97
2019-03-08T09:26:55.382Z,1.93
2019-03-08T09:29:48.291Z,1.00
2019-03-08T09:32:40.784Z,1.57
2019-03-08T09:35:18.338Z,1.57
2019-03-08T09:38:08.107Z,1.70
2019-03-08T09:41:09.578Z,1.37
2019-03-08T09:44:08.098Z,1.53
2019-03-08T09:46:56.091Z,0.80
2019-03-08T09:49:44.420Z,1.20
2019-03-08T09:52:28.521Z,1.50
2019-03-08T09:55:04.791Z,1.13
2019-03-08T09:57:54.412Z,2.10
2019-03-08T10:00:42.422Z,1.20
2019-03-08T10:03:46.807Z,0.93
2019-03-08T10:06:41.023Z,3.33
2019-03-08T10:09:21.390Z,2.00
2019-03-08T10:12:09.269Z,0.40
2019-03-08T10:14:50.915Z,1.23
2019-03-08T10:17:49.667Z,1.07
2019-03-08T10:20:51.229Z,0.60
2019-03-08T10:23:47.520Z,0.83
2019-03-08T10:26:36.707Z,1.37
2019-03-08T10:29:31.890Z,0.50
2019-03-08T10:32:37.338Z,1.73
2019-03-08T10:35:24.292Z,1.53
2019-03-08T10:38:22.619Z,0.57
2019-03-08T10:41:13.634Z,0.30
2019-03-08T10:44:11.877Z,0.30
2019-03-08T10:47:15.098Z,0.20
2019-03-08T10:50:19.546Z,0.93
2019-03-08T10:53:11.789Z,0.87
2019-03-08T10:56:12.030Z,1.00
2019-03-08T10:59:07.788Z,0.50
2019-03-08T11:01:44.576Z,0.30
2019-03-08T11:04:37.127Z,0.70
2019-03-08T11:07:33.623Z,1.23
2019-03-08T11:10:21.656Z,1.13
2019-03-08T11:13:17.119Z,2.70
2019-03-08T11:16:06.547Z,1.03
2019-03-08T11:19:08.290Z,2.33
2019-03-08T11:21:50.143Z,2.67
2019-03-08T11:24:37.138Z,1.03
2019-03-08T11:27:24.270Z,2.80
2019-03-08T11:30:04.095Z,0.90
2019-03-08T11:32:59.895Z,0.83
2019-03-08T11:35:45.159Z,1.73
2019-03-08T11:38:23.991Z,0.23
2019-03-08T11:41:16.508Z,0.40
2019-03-08T11:43:57.210Z,1.20
2019-03-08T11:46:43.830Z,0.30
2019-03-08T11:49:30.922Z,1.00
2019-03-08T11:52:26.460Z,1.03
2019-03-08T11:55:14.607Z,1.73
2019-03-08T11:58:02.739Z,0.93
2019-03-08T12:00:41.698Z,2.13
2019-03-08T12:03:41.221Z,2.47
2019-03-08T12:06:39.458Z,0.83
2019-03-08T12:09:22.459Z,3.00
2019-03-08T12:12:30.298Z,0.60
2019-03-08T12:15:12.078Z,0.80
2019-03-08T12:17:59.641Z,2.33
2019-03-08T12:20:58.243Z,0.73
2019-03-08T12:23:34.818Z,0.20
2019-03-08T12:26:22.933Z,1.67
2019-03-08T12:29:18.131Z,2.10
2019-03-08T12:32:23.502Z,0.70
2019-03-08T12:35:08.907Z,2.33
2019-03-08T12:38:07.738Z,2.53
2019-03-08T12:41:02.951Z,0.20
2019-03-08T12:43:45.571Z,1.50
2019-03-08T12:46:40.708Z,0.77
2019-03-08T12:49:41.647Z,1.07
2019-03-08T12:52:30.886Z,0.27
2019-03-08T12:55:23.349Z,0.67
2019-03-08T12:58:12.804Z,0.30
2019-03-08T13:00:58.666Z,2.30
2019-03-08T13:03:46.511Z,0.63
2019-03-08T13:06:26.295Z,1.13
2019-03-08T13:09:11.186Z,1.23
2019-03-08T13:11:41.989Z,0.23
2019-03-08T13:14:12.465Z,1.03
2019-03-08T13:16:42.952Z,2.30
2019-03-08T13:19:13.606Z,0.70
2019-03-08T13:21:44.034Z,2.23
2019-03-08T13:24:14.962Z,0.57
2019-03-08T13:26:45.425Z,2.77
2019-03-08T13:29:16.179Z,1.67
2019-03-08T13:31:46.635Z,0.97
2019-03-08T13:34:17.127Z,1.27
2019-03-08T13:36:47.606Z,0.47
2019-03-08T13:39:18.088Z,0.60
2019-03-08T13:41:48.575Z,1.70
2019-03-08T13:44:19.031Z,0.30
2019-03-08T13:46:49.519Z,0.40
2019-03-08T13:49:20.418Z,0.43
2019-03-08T13:51:51.514Z,0.73
2019-03-08T13:54:22.271Z,1.30
2019-03-08T13:56:52.666Z,0.97
2019-03-08T13:59:23.490Z,1.13
2019-03-08T14:01:54.170Z,2.30
2019-03-08T14:04:24.661Z,0.57
2019-03-08T14:06:55.147Z,0.93
2019-03-08T14:09:25.642Z,3.60
2019-03-08T14:11:56.076Z,0.30
2019-03-08T14:14:26.558Z,0.30
2019-03-08T14:16:57.035Z,3.20
2019-03-08T14:19:27.529Z,0.37
2019-03-08T14:21:58.015Z,0.40
2019-03-08T14:24:28.520Z,0.50
2019-03-08T14:26:59.947Z,0.70
2019-03-08T14:29:31.672Z,1.27
2019-03-08T14:32:05.488Z,0.80
2019-03-08T14:34:36.287Z,2.37
2019-03-08T14:37:07.078Z,3.37
2019-03-08T14:39:40.211Z,5.13
2019-03-08T14:42:41.625Z,2.70
2019-03-08T14:45:34.732Z,3.30
2019-03-08T14:48:05.924Z,1.07
2019-03-08T14:50:37.603Z,4.50
2019-03-08T14:53:08.090Z,1.90
2019-03-08T14:55:38.623Z,2.63
2019-03-08T14:58:09.082Z,7.70
2019-03-08T15:00:39.578Z,5.87
2019-03-08T15:03:10.159Z,3.83
2019-03-08T15:05:40.647Z,5.33
2019-03-08T15:08:13.631Z,4.47
2019-03-08T15:10:47.060Z,6.10
2019-03-08T15:13:15.709Z,4.50
2019-03-08T15:15:46.282Z,4.93
2019-03-08T15:18:16.974Z,1.87
2019-03-08T15:20:47.460Z,3.27
2019-03-08T15:23:18.280Z,1.13
2019-03-08T15:25:50.372Z,0.30
2019-03-08T15:28:21.002Z,1.40
2019-03-08T15:30:51.494Z,3.57
2019-03-08T15:33:21.972Z,2.00
2019-03-08T15:35:52.458Z,1.47
2019-03-08T15:38:22.935Z,2.67
2019-03-08T15:40:55.959Z,1.93
2019-03-08T15:43:26.437Z,2.10
2019-03-08T15:45:57.276Z,2.53
2019-03-08T15:48:27.766Z,0.77
2019-03-08T15:50:59.557Z,4.13
2019-03-08T15:53:30.587Z,3.80
2019-03-08T15:56:01.147Z,1.47
2019-03-08T15:58:31.919Z,5.67
2019-03-08T16:01:02.431Z,6.83
2019-03-08T16:03:33.830Z,2.47
2019-03-08T16:06:06.442Z,3.17
2019-03-08T16:08:39.721Z,3.03
2019-03-08T16:11:09.329Z,3.13
2019-03-08T16:13:39.795Z,1.83
2019-03-08T16:16:10.671Z,3.17
2019-03-08T16:18:44.113Z,5.33
2019-03-08T16:21:14.316Z,3.57
2019-03-08T16:23:48.832Z,4.10
2019-03-08T16:26:21.433Z,5.20
2019-03-08T16:28:51.623Z,3.47
2019-03-08T16:31:31.331Z,2.47
2019-03-08T16:34:01.803Z,3.30
2019-03-08T16:36:54.234Z,4.03
2019-03-08T16:39:44.734Z,3.60
2019-03-08T16:42:21.358Z,7.50
2019-03-08T16:45:15.939Z,3.03
2019-03-08T16:48:03.822Z,6.97
2019-03-08T16:50:44.759Z,2.80
2019-03-08T16:53:32.652Z,5.43
2019-03-08T16:56:16.774Z,6.97
2019-03-08T16:59:02.033Z,4.90
2019-03-08T17:01:49.895Z,5.20
2019-03-08T17:04:42.398Z,3.60
2019-03-08T17:07:30.257Z,5.37
2019-03-08T17:10:18.220Z,3.73
2019-03-08T17:13:06.478Z,4.87
2019-03-08T17:15:48.031Z,4.83
2019-03-08T17:18:40.252Z,4.83
2019-03-08T17:21:17.886Z,4.07
2019-03-08T17:24:07.326Z,10.10
2019-03-08T17:27:12.067Z,5.97
2019-03-08T17:29:47.861Z,7.83
2019-03-08T17:32:43.334Z,6.07
2019-03-08T17:35:31.419Z,7.27
2019-03-08T17:38:29.339Z,8.70
2019-03-08T17:41:08.994Z,6.07
2019-03-08T17:44:04.806Z,8.70
2019-03-08T17:46:57.334Z,7.70
2019-03-08T17:49:41.304Z,7.53
2019-03-08T17:52:26.479Z,4.97
2019-03-08T17:55:06.443Z,4.37
2019-03-08T17:58:02.072Z,3.13
2019-03-08T18:00:44.268Z,3.93
2019-03-08T18:03:23.328Z,2.73
2019-03-08T18:06:00.100Z,9.97
2019-03-08T18:08:48.194Z,5.40
2019-03-08T18:11:49.422Z,3.40
2019-03-08T18:14:50.849Z,5.80
2019-03-08T18:17:39.015Z,7.77
2019-03-08T18:20:37.274Z,5.23
2019-03-08T18:23:38.589Z,7.10
2019-03-08T18:26:40.162Z,4.87
2019-03-08T18:29:28.487Z,5.37
2019-03-08T18:32:20.707Z,5.77
2019-03-08T18:35:25.315Z,8.23
2019-03-08T18:38:26.427Z,3.47
2019-03-08T18:41:23.011Z,6.33
2019-03-08T18:44:03.872Z,6.17
2019-03-08T18:46:43.956Z,6.83
2019-03-08T18:49:32.390Z,7.63
2019-03-08T18:52:20.167Z,5.03
2019-03-08T18:55:12.605Z,4.60
2019-03-08T18:58:06.008Z,4.63
2019-03-08T19:00:43.569Z,4.57
2019-03-08T19:03:31.715Z,10.23
2019-03-08T19:06:14.971Z,7.00
2019-03-08T19:09:01.289Z,6.10
2019-03-08T19:11:46.343Z,5.17
2019-03-08T19:14:34.427Z,4.53
2019-03-08T19:17:21.331Z,3.90
2019-03-08T19:20:13.546Z,4.77
2019-03-08T19:22:58.530Z,4.33
2019-03-08T19:25:36.746Z,7.73
2019-03-08T19:28:16.675Z,3.57
2019-03-08T19:31:04.842Z,3.83
2019-03-08T19:33:52.711Z,4.17
2019-03-08T19:36:30.073Z,9.03
2019-03-08T19:39:34.643Z,7.00
2019-03-08T19:42:11.760Z,6.30
2019-03-08T19:45:00.051Z,6.93
2019-03-08T19:47:48.367Z,9.63
2019-03-08T19:50:34.762Z,7.37
2019-03-08T19:53:24.287Z,6.87
2019-03-08T19:56:15.758Z,4.60
2019-03-08T19:59:01.916Z,5.87
2019-03-08T20:01:54.436Z,7.13
2019-03-08T20:04:42.806Z,9.17
2019-03-08T20:07:35.331Z,6.53
2019-03-08T20:10:23.855Z,12.13
2019-03-08T20:13:16.555Z,10.07
2019-03-08T20:16:14.776Z,8.57
2019-03-08T20:19:06.970Z,14.73
2019-03-08T20:21:46.907Z,10.00
2019-03-08T20:24:29.269Z,9.43
2019-03-08T20:27:09.896Z,13.17
2019-03-08T20:30:02.308Z,8.47
2019-03-08T20:32:43.783Z,9.57
2019-03-08T20:35:36.055Z,15.03
2019-03-08T20:38:27.623Z,16.97
2019-03-08T20:41:18.140Z,10.30
2019-03-08T20:43:56.738Z,13.07
2019-03-08T20:46:49.431Z,15.03
2019-03-08T20:49:19.926Z,15.27
2019-03-08T20:51:50.403Z,13.03
2019-03-08T20:54:22.280Z,6.93
2019-03-08T20:56:53.107Z,11.13
2019-03-08T20:59:24.998Z,13.90
2019-03-08T21:01:55.523Z,16.83
2019-03-08T21:04:26.006Z,12.80
2019-03-08T21:06:57.480Z,10.40
2019-03-08T21:09:30.990Z,14.70
2019-03-08T21:12:01.496Z,16.07
2019-03-08T21:14:32.396Z,13.27
2019-03-08T21:17:03.014Z,16.63
2019-03-08T21:19:33.598Z,17.83
2019-03-08T21:22:05.088Z,12.77
2019-03-08T21:24:35.771Z,14.43
2019-03-08T21:27:06.250Z,11.93
2019-03-08T21:29:36.738Z,14.50
2019-03-08T21:32:07.559Z,10.73
2019-03-08T21:34:38.123Z,7.70
2019-03-08T21:37:08.902Z,13.90
2019-03-08T21:39:39.404Z,16.87
2019-03-08T21:42:09.907Z,13.97
2019-03-08T21:44:40.434Z,11.53
2019-03-08T21:47:10.954Z,17.33
2019-03-08T21:49:41.557Z,13.57
2019-03-08T21:52:12.407Z,12.77
2019-03-08T21:54:42.883Z,14.87
2019-03-08T21:57:13.407Z,11.03
2019-03-08T21:59:43.880Z,8.83
2019-03-08T22:02:14.388Z,13.63
2019-03-08T22:04:48.910Z,14.23
2019-03-08T22:07:19.856Z,12.33
2019-03-08T22:09:55.389Z,9.63
2019-03-08T22:12:25.881Z,8.87
2019-03-08T22:14:56.422Z,14.07
2019-03-08T22:17:27.118Z,15.53
2019-03-08T22:19:57.633Z,12.33
2019-03-08T22:22:28.138Z,11.90
2019-03-08T22:24:58.687Z,10.30
2019-03-08T22:27:29.154Z,13.37
2019-03-08T22:29:59.942Z,11.47
2019-03-08T22:32:30.438Z,12.00
2019-03-08T22:35:00.945Z,9.53
2019-03-08T22:37:31.455Z,11.70
2019-03-08T22:40:01.946Z,12.00
2019-03-08T22:42:32.442Z,13.17
2019-03-08T22:45:02.927Z,11.33
2019-03-08T22:47:33.775Z,10.17
2019-03-08T22:50:04.506Z,11.73
2019-03-08T22:52:35.014Z,12.23
2019-03-08T22:55:05.781Z,12.63
2019-03-08T22:57:36.254Z,14.57
2019-03-08T23:00:19.795Z,10.53
2019-03-08T23:02:50.519Z,15.37
2019-03-08T23:05:21.010Z,11.13
2019-03-08T23:07:51.526Z,10.67
2019-03-08T23:10:22.024Z,6.73
2019-03-08T23:12:52.854Z,9.57
2019-03-08T23:15:23.422Z,9.93
2019-03-08T23:17:53.886Z,10.30
2019-03-08T23:20:24.390Z,13.27
2019-03-08T23:22:54.876Z,6.63
2019-03-08T23:25:25.970Z,13.57
2019-03-08T23:28:12.583Z,10.87
2019-03-08T23:30:46.153Z,13.57
2019-03-08T23:33:16.658Z,9.37
2019-03-08T23:35:48.836Z,7.20
2019-03-08T23:38:19.340Z,10.53
2019-03-08T23:40:49.851Z,12.37
2019-03-08T23:43:20.332Z,7.83
2019-03-08T23:45:51.314Z,7.73
2019-03-08T23:48:21.829Z,9.30
2019-03-08T23:50:52.424Z,7.23
2019-03-08T23:53:23.248Z,9.80
2019-03-08T23:55:54.020Z,10.70
2019-03-08T23:58:24.799Z,9.60
